createdAt,value
2022-12-15T00:02:00.199Z,101128.88
2022-12-15T00:05:04.874Z,101133.44
2022-12-15T00:08:09.030Z,101123.38
2022-12-15T00:11:13.140Z,101127.19
2022-12-15T00:14:17.630Z,101141.53
2022-12-15T00:17:21.660Z,101136.34
2022-12-15T00:20:26.507Z,101134.09
2022-12-15T00:23:31.536Z,101128.44
2022-12-15T00:26:35.679Z,101125.91
2022-12-15T00:29:39.753Z,101132.53
2022-12-15T00:32:43.897Z,101132.63
2022-12-15T00:35:48.019Z,101136.03
2022-12-15T00:38:43.455Z,101138.59
2022-12-15T00:41:29.117Z,101144.44
2022-12-15T00:44:18.949Z,101144.34
2022-12-15T00:47:06.651Z,101140.81
2022-12-15T00:50:11.235Z,101146.47
2022-12-15T00:53:15.386Z,101137.84
2022-12-15T00:56:19.427Z,101139.34
2022-12-15T00:59:23.565Z,101141.91
2022-12-15T01:02:27.510Z,101139.00
2022-12-15T01:05:31.679Z,101144.72
2022-12-15T01:08:35.879Z,101138.66
2022-12-15T01:11:39.920Z,101136.91
2022-12-15T01:14:44.749Z,101134.25
2022-12-15T01:17:48.946Z,101137.59
2022-12-15T01:20:34.813Z,101138.38
2022-12-15T01:23:20.156Z,101132.47
2022-12-15T01:26:07.013Z,101136.72
2022-12-15T01:28:52.508Z,101144.41
2022-12-15T01:31:38.018Z,101135.13
2022-12-15T01:34:23.708Z,101130.91
2022-12-15T01:37:09.237Z,101127.38
2022-12-15T01:40:13.285Z,101129.22
2022-12-15T01:42:58.847Z,101119.97
2022-12-15T01:45:49.709Z,101125.16
2022-12-15T01:48:44.075Z,101114.16
2022-12-15T01:51:37.500Z,101123.66
2022-12-15T01:54:28.177Z,101124.47
2022-12-15T01:57:19.253Z,101133.19
2022-12-15T02:00:08.508Z,101135.00
2022-12-15T02:02:54.939Z,101140.84
2022-12-15T02:05:41.858Z,101138.22
2022-12-15T02:08:28.920Z,101139.53
2022-12-15T02:11:32.542Z,101141.13
2022-12-15T02:14:44.673Z,101137.41
2022-12-15T02:18:17.418Z,101130.63
2022-12-15T02:21:31.049Z,101131.06
2022-12-15T02:24:33.919Z,101149.81
2022-12-15T02:27:49.305Z,101150.34
2022-12-15T02:31:08.452Z,101153.69
2022-12-15T02:34:17.564Z,101161.16
2022-12-15T02:37:26.432Z,101155.88
2022-12-15T02:40:11.945Z,101166.09
2022-12-15T02:42:59.420Z,101171.00
2022-12-15T02:46:08.320Z,101160.06
2022-12-15T02:49:16.905Z,101166.34
2022-12-15T02:52:08.345Z,101166.09
2022-12-15T02:55:22.944Z,101156.38
2022-12-15T02:58:49.819Z,101162.19
2022-12-15T03:01:42.079Z,101161.03
2022-12-15T03:04:28.128Z,101153.00
2022-12-15T03:07:14.332Z,101157.81
2022-12-15T03:10:02.567Z,101155.09
2022-12-15T03:12:48.263Z,101157.38
2022-12-15T03:15:35.531Z,101159.94
2022-12-15T03:18:21.903Z,101157.47
2022-12-15T03:21:08.883Z,101161.75
2022-12-15T03:23:54.222Z,101159.03
2022-12-15T03:26:39.510Z,101153.03
2022-12-15T03:29:24.930Z,101159.75
2022-12-15T03:32:10.294Z,101153.66
2022-12-15T03:34:55.792Z,101154.16
2022-12-15T03:37:42.954Z,101158.19
2022-12-15T03:40:28.592Z,101164.84
2022-12-15T03:43:14.016Z,101157.03
2022-12-15T03:45:59.289Z,101158.50
2022-12-15T03:48:44.699Z,101156.66
2022-12-15T03:51:30.104Z,101154.00
2022-12-15T03:54:15.584Z,101155.47
2022-12-15T03:57:01.147Z,101164.78
2022-12-15T03:59:46.492Z,101160.56
2022-12-15T04:02:32.092Z,101164.88
2022-12-15T04:05:26.457Z,101166.66
2022-12-15T04:08:12.925Z,101159.88
2022-12-15T04:10:58.315Z,101161.56
2022-12-15T04:13:43.668Z,101160.66
2022-12-15T04:16:29.724Z,101161.38
2022-12-15T04:19:33.688Z,101160.28
2022-12-15T04:22:19.346Z,101168.72
2022-12-15T04:25:24.542Z,101162.84
2022-12-15T04:28:30.117Z,101163.63
2022-12-15T04:31:38.885Z,101160.00
2022-12-15T04:34:43.570Z,101164.22
2022-12-15T04:37:47.599Z,101158.91
2022-12-15T04:40:51.925Z,101158.22
2022-12-15T04:43:56.037Z,101154.41
2022-12-15T04:47:00.427Z,101152.91
2022-12-15T04:50:04.547Z,101153.09
2022-12-15T04:53:08.687Z,101153.31
2022-12-15T04:56:18.284Z,101153.41
2022-12-15T04:59:23.239Z,101161.16
2022-12-15T05:02:27.477Z,101142.22
2022-12-15T05:05:31.314Z,101147.13
2022-12-15T05:08:35.554Z,101148.63
2022-12-15T05:11:39.633Z,101152.53
2022-12-15T05:14:43.733Z,101152.44
2022-12-15T05:17:48.560Z,101156.47
2022-12-15T05:20:52.645Z,101163.25
2022-12-15T05:23:56.897Z,101153.72
2022-12-15T05:27:00.937Z,101146.78
2022-12-15T05:30:05.142Z,101159.41
2022-12-15T05:32:50.888Z,101154.31
2022-12-15T05:35:36.109Z,101148.63
2022-12-15T05:38:21.544Z,101159.00
2022-12-15T05:41:06.832Z,101166.66
2022-12-15T05:43:52.272Z,101169.13
2022-12-15T05:46:38.018Z,101163.63
2022-12-15T05:49:23.507Z,101158.34
2022-12-15T05:52:09.222Z,101154.63
2022-12-15T05:54:54.929Z,101151.09
2022-12-15T05:57:40.306Z,101152.78
2022-12-15T06:00:26.094Z,101157.66
2022-12-15T06:03:11.542Z,101160.63
2022-12-15T06:05:56.872Z,101172.47
2022-12-15T06:08:43.236Z,101166.22
2022-12-15T06:11:28.814Z,101170.41
2022-12-15T06:14:14.146Z,101172.19
2022-12-15T06:17:00.263Z,101172.09
2022-12-15T06:19:46.054Z,101169.81
2022-12-15T06:22:31.381Z,101172.47
2022-12-15T06:25:18.237Z,101172.66
2022-12-15T06:28:03.747Z,101174.44
2022-12-15T06:30:51.182Z,101174.63
2022-12-15T06:33:37.644Z,101172.16
2022-12-15T06:36:26.326Z,101175.50
2022-12-15T06:39:15.308Z,101183.94
2022-12-15T06:42:00.567Z,101177.75
2022-12-15T06:44:45.970Z,101182.56
2022-12-15T06:47:35.239Z,101188.44
2022-12-15T06:50:20.889Z,101189.16
2022-12-15T06:53:06.502Z,101183.81
2022-12-15T06:55:52.009Z,101189.72
2022-12-15T06:58:37.231Z,101192.19
2022-12-15T07:01:24.183Z,101190.50
2022-12-15T07:04:11.420Z,101198.03
2022-12-15T07:06:57.354Z,101196.38
2022-12-15T07:09:42.722Z,101197.28
2022-12-15T07:12:28.202Z,101198.91
2022-12-15T07:15:13.922Z,101199.00
2022-12-15T07:17:59.252Z,101195.78
2022-12-15T07:20:44.929Z,101188.44
2022-12-15T07:23:53.684Z,101196.50
2022-12-15T07:26:41.464Z,101190.00
2022-12-15T07:29:27.159Z,101190.09
2022-12-15T07:32:12.810Z,101188.66
2022-12-15T07:34:58.422Z,101194.63
2022-12-15T07:37:44.017Z,101203.25
2022-12-15T07:40:29.711Z,101204.13
2022-12-15T07:43:16.081Z,101209.22
2022-12-15T07:46:01.566Z,101209.13
2022-12-15T07:48:50.681Z,101217.66
2022-12-15T07:51:36.484Z,101214.44
2022-12-15T07:54:21.787Z,101226.41
2022-12-15T07:57:07.724Z,101227.19
2022-12-15T07:59:52.875Z,101235.00
2022-12-15T08:02:43.301Z,101224.22
2022-12-15T08:05:29.278Z,101231.19
2022-12-15T08:08:15.502Z,101237.38
2022-12-15T08:11:09.352Z,101240.91
2022-12-15T08:14:03.904Z,101247.56
2022-12-15T08:16:51.182Z,101248.38
2022-12-15T08:19:36.968Z,101253.56
2022-12-15T08:22:22.280Z,101251.88
2022-12-15T08:25:07.973Z,101257.75
2022-12-15T08:27:53.537Z,101256.78
2022-12-15T08:30:38.994Z,101260.22
2022-12-15T08:33:24.439Z,101270.22
2022-12-15T08:36:11.887Z,101272.19
2022-12-15T08:38:58.381Z,101272.47
2022-12-15T08:41:44.442Z,101268.25
2022-12-15T08:44:30.245Z,101276.72
2022-12-15T08:47:15.623Z,101273.34
2022-12-15T08:50:01.244Z,101264.72
2022-12-15T08:53:06.581Z,101272.56
2022-12-15T08:55:52.665Z,101271.22
2022-12-15T08:58:38.760Z,101269.53
2022-12-15T09:01:26.829Z,101271.31
2022-12-15T09:04:12.350Z,101273.97
2022-12-15T09:06:57.570Z,101274.91
2022-12-15T09:09:43.381Z,101279.16
2022-12-15T09:12:29.385Z,101277.56
2022-12-15T09:15:15.449Z,101283.47
2022-12-15T09:18:00.663Z,101301.53
2022-12-15T09:20:46.064Z,101305.03
2022-12-15T09:23:32.402Z,101315.25
2022-12-15T09:26:19.935Z,101311.25
2022-12-15T09:29:05.627Z,101330.16
2022-12-15T09:31:50.955Z,101324.56
2022-12-15T09:34:36.330Z,101311.22
2022-12-15T09:37:21.821Z,101314.84
2022-12-15T09:40:10.214Z,101315.94
2022-12-15T09:43:25.602Z,101325.47
2022-12-15T09:46:18.713Z,101328.47
2022-12-15T09:49:16.839Z,101334.88
2022-12-15T09:52:11.747Z,101338.56
2022-12-15T09:54:59.459Z,101338.75
2022-12-15T09:57:54.366Z,101333.88
2022-12-15T10:03:51.787Z,101334.34
2022-12-15T10:06:50.723Z,101339.03
2022-12-15T10:09:37.535Z,101340.19
2022-12-15T10:12:30.033Z,101337.94
2022-12-15T10:15:46.099Z,101340.00
2022-12-15T10:18:47.330Z,101343.59
2022-12-15T10:21:36.590Z,101342.13
2022-12-15T10:24:51.811Z,101345.94
2022-12-15T10:27:50.460Z,101354.19
2022-12-15T10:30:43.908Z,101354.53
2022-12-15T10:33:47.037Z,101347.22
2022-12-15T10:36:34.593Z,101350.16
2022-12-15T10:39:21.272Z,101351.31
2022-12-15T10:42:12.913Z,101356.69
2022-12-15T10:44:59.540Z,101350.09
2022-12-15T10:47:58.970Z,101352.94
2022-12-15T10:50:44.867Z,101342.78
2022-12-15T10:53:42.320Z,101335.31
2022-12-15T10:56:33.598Z,101340.75
2022-12-15T10:59:35.813Z,101343.78
2022-12-15T11:02:24.440Z,101342.28
2022-12-15T11:05:15.972Z,101346.94
2022-12-15T11:08:16.385Z,101347.34
2022-12-15T11:11:26.022Z,101346.59
2022-12-15T11:14:16.389Z,101343.69
2022-12-15T11:17:01.795Z,101343.25
2022-12-15T11:20:02.203Z,101352.25
2022-12-15T11:23:05.142Z,101349.25
2022-12-15T11:25:59.224Z,101342.81
2022-12-15T11:29:24.069Z,101344.16
2022-12-15T11:32:11.866Z,101336.22
2022-12-15T11:34:57.542Z,101339.38
2022-12-15T11:38:06.430Z,101321.97
2022-12-15T11:40:54.556Z,101318.09
2022-12-15T11:43:57.154Z,101330.53
2022-12-15T11:47:22.149Z,101322.38
2022-12-15T11:50:29.568Z,101322.78
2022-12-15T11:53:31.946Z,101325.75
2022-12-15T11:56:39.495Z,101326.06
2022-12-15T11:59:36.266Z,101312.75
2022-12-15T12:02:43.153Z,101313.00
2022-12-15T12:05:40.533Z,101314.13
2022-12-15T12:08:36.236Z,101314.44
2022-12-15T12:11:37.096Z,101313.94
2022-12-15T12:14:31.551Z,101309.16
2022-12-15T12:18:04.649Z,101313.78
2022-12-15T12:20:56.694Z,101303.91
2022-12-15T12:23:41.981Z,101305.81
2022-12-15T12:26:48.617Z,101299.28
2022-12-15T12:30:11.377Z,101298.84
2022-12-15T12:32:56.840Z,101306.94
2022-12-15T12:36:00.360Z,101297.84
2022-12-15T12:38:51.029Z,101308.56
2022-12-15T12:41:59.784Z,101302.03
2022-12-15T12:44:45.180Z,101298.00
2022-12-15T12:47:37.685Z,101300.94
2022-12-15T12:50:27.300Z,101303.75
2022-12-15T12:53:31.049Z,101295.59
2022-12-15T12:56:35.295Z,101295.94
2022-12-15T12:59:29.830Z,101304.75
2022-12-15T13:02:15.199Z,101304.81
2022-12-15T13:05:29.985Z,101296.13
2022-12-15T13:08:15.554Z,101299.44
2022-12-15T13:11:43.520Z,101295.28
2022-12-15T13:14:48.206Z,101303.25
2022-12-15T13:17:42.146Z,101296.59
2022-12-15T13:20:32.157Z,101303.97
2022-12-15T13:23:23.859Z,101312.81
2022-12-15T13:26:09.165Z,101319.84
2022-12-15T13:28:57.258Z,101310.47
2022-12-15T13:31:51.142Z,101306.34
2022-12-15T13:34:41.264Z,101311.00
2022-12-15T13:37:54.199Z,101304.19
2022-12-15T13:40:54.031Z,101302.56
2022-12-15T13:43:45.716Z,101308.94
2022-12-15T13:46:33.837Z,101293.44
2022-12-15T13:49:49.096Z,101291.06
2022-12-15T13:53:17.360Z,101296.47
2022-12-15T13:56:06.960Z,101293.84
2022-12-15T13:59:01.345Z,101308.53
2022-12-15T14:01:52.684Z,101303.44
2022-12-15T14:04:37.957Z,101300.94
2022-12-15T14:07:23.255Z,101296.47
2022-12-15T14:10:28.682Z,101295.66
2022-12-15T14:13:28.950Z,101297.44
2022-12-15T14:16:14.602Z,101297.34
2022-12-15T14:19:16.754Z,101305.16
2022-12-15T14:22:02.352Z,101299.91
2022-12-15T14:24:49.217Z,101300.81
2022-12-15T14:27:34.748Z,101292.28
2022-12-15T14:30:29.698Z,101295.72
2022-12-15T14:33:18.280Z,101293.22
2022-12-15T14:36:07.937Z,101296.66
2022-12-15T14:39:06.783Z,101289.78
2022-12-15T14:41:54.148Z,101292.28
2022-12-15T14:44:51.338Z,101286.19
2022-12-15T14:51:01.359Z,101286.19
2022-12-15T14:53:50.155Z,101283.47
2022-12-15T14:56:39.806Z,101285.91
2022-12-15T14:59:30.862Z,101286.59
2022-12-15T15:02:30.495Z,101290.81
2022-12-15T15:03:03.532Z,101334.06
2022-12-15T15:03:16.358Z,101293.97
2022-12-15T15:05:27.732Z,101290.56
2022-12-15T15:08:21.286Z,101293.00
2022-12-15T15:11:29.979Z,101295.31
2022-12-15T15:14:25.703Z,101294.91
2022-12-15T15:17:14.772Z,101303.97
2022-12-15T15:20:03.292Z,101315.13
2022-12-15T15:23:07.305Z,101322.56
2022-12-15T15:26:07.674Z,101318.22
2022-12-15T15:28:54.057Z,101321.38
2022-12-15T15:31:42.259Z,101324.53
2022-12-15T15:34:28.090Z,101328.72
2022-12-15T15:37:20.485Z,101330.19
2022-12-15T15:40:10.734Z,101335.19
2022-12-15T15:42:56.224Z,101334.41
2022-12-15T15:45:42.253Z,101341.50
2022-12-15T15:48:32.838Z,101343.28
2022-12-15T15:51:18.937Z,101347.38
2022-12-15T15:54:13.702Z,101353.91
2022-12-15T15:56:58.976Z,101355.31
2022-12-15T15:59:45.240Z,101355.63
2022-12-15T16:02:31.111Z,101361.25
2022-12-15T16:05:16.800Z,101366.06
2022-12-15T16:08:04.044Z,101367.47
2022-12-15T16:10:50.392Z,101366.06
2022-12-15T16:13:35.872Z,101364.84
2022-12-15T16:16:30.211Z,101367.69
2022-12-15T16:19:15.786Z,101369.47
2022-12-15T16:22:01.273Z,101363.56
2022-12-15T16:24:47.130Z,101366.19
2022-12-15T16:27:32.695Z,101370.47
2022-12-15T16:30:24.124Z,101372.28
2022-12-15T16:33:10.321Z,101380.97
2022-12-15T16:35:55.984Z,101383.84
2022-12-15T16:38:43.277Z,101379.72
2022-12-15T16:41:28.961Z,101386.91
2022-12-15T16:44:14.529Z,101389.81
2022-12-15T16:46:59.941Z,101394.75
2022-12-15T16:49:45.583Z,101389.72
2022-12-15T16:52:30.968Z,101394.59
2022-12-15T16:55:22.188Z,101391.84
2022-12-15T16:58:14.990Z,101399.38
2022-12-15T17:01:00.663Z,101399.19
2022-12-15T17:03:47.350Z,101403.94
2022-12-15T17:06:33.211Z,101406.00
2022-12-15T17:09:23.851Z,101409.34
2022-12-15T17:12:20.187Z,101420.66
2022-12-15T17:15:16.941Z,101416.47
2022-12-15T17:18:02.748Z,101419.78
2022-12-15T17:20:48.564Z,101424.50
2022-12-15T17:23:35.348Z,101426.63
2022-12-15T17:26:29.578Z,101417.72
2022-12-15T17:29:19.108Z,101427.06
2022-12-15T17:32:06.269Z,101428.94
2022-12-15T17:34:52.125Z,101434.56
2022-12-15T17:37:38.192Z,101441.28
2022-12-15T17:40:24.216Z,101447.66
2022-12-15T17:43:18.552Z,101448.72
2022-12-15T17:46:04.246Z,101439.72
2022-12-15T17:48:50.257Z,101447.41
2022-12-15T17:51:35.990Z,101450.13
2022-12-15T17:54:21.821Z,101453.47
2022-12-15T17:57:11.382Z,101455.41
2022-12-15T17:59:56.672Z,101452.59
2022-12-15T18:02:42.399Z,101450.81
2022-12-15T18:05:29.996Z,101454.09
2022-12-15T18:08:18.216Z,101456.72
2022-12-15T18:11:03.879Z,101460.03
2022-12-15T18:13:49.692Z,101460.72
2022-12-15T18:16:35.384Z,101460.03
2022-12-15T18:19:21.024Z,101460.09
2022-12-15T18:22:14.378Z,101464.31
2022-12-15T18:24:59.728Z,101465.16
2022-12-15T18:27:45.098Z,101470.88
2022-12-15T18:30:30.982Z,101475.00
2022-12-15T18:33:16.989Z,101475.09
2022-12-15T18:36:02.536Z,101475.09
2022-12-15T18:38:48.362Z,101481.97
2022-12-15T18:41:33.742Z,101481.13
2022-12-15T18:44:25.293Z,101483.59
2022-12-15T18:47:19.428Z,101482.59
2022-12-15T18:50:05.564Z,101485.06
2022-12-15T18:52:59.454Z,101482.34
2022-12-15T18:55:47.121Z,101483.84
2022-12-15T18:58:36.536Z,101495.47
2022-12-15T19:01:22.027Z,101495.38
2022-12-15T19:04:07.569Z,101499.81
2022-12-15T19:06:52.924Z,101501.28
2022-12-15T19:09:38.373Z,101497.00
2022-12-15T19:12:24.509Z,101503.56
2022-12-15T19:15:16.893Z,101503.50
2022-12-15T19:18:20.797Z,101499.34
2022-12-15T19:21:44.200Z,101495.72
2022-12-15T19:24:51.602Z,101500.84
2022-12-15T19:27:37.216Z,101495.63
2022-12-15T19:30:22.596Z,101502.41
2022-12-15T19:33:08.406Z,101494.72
2022-12-15T19:35:55.643Z,101504.78
2022-12-15T19:38:41.441Z,101506.38
2022-12-15T19:41:27.026Z,101509.72
2022-12-15T19:44:15.906Z,101521.66
2022-12-15T19:47:01.545Z,101518.91
2022-12-15T19:49:47.095Z,101519.00
2022-12-15T19:52:32.764Z,101512.19
2022-12-15T19:55:25.669Z,101515.34
2022-12-15T19:58:28.245Z,101518.59
2022-12-15T20:01:16.604Z,101522.84
2022-12-15T20:04:02.263Z,101518.31
2022-12-15T20:06:48.152Z,101520.63
2022-12-15T20:09:33.709Z,101523.94
2022-12-15T20:12:20.542Z,101530.06
2022-12-15T20:15:17.984Z,101525.03
2022-12-15T20:18:03.262Z,101520.00
2022-12-15T20:20:50.196Z,101520.78
2022-12-15T20:23:35.993Z,101523.34
2022-12-15T20:26:24.426Z,101531.03
2022-12-15T20:29:25.094Z,101539.59
2022-12-15T20:32:15.922Z,101535.19
2022-12-15T20:35:01.561Z,101539.38
2022-12-15T20:37:48.569Z,101534.09
2022-12-15T20:40:34.345Z,101537.47
2022-12-15T20:43:22.455Z,101533.03
2022-12-15T20:46:17.939Z,101537.16
2022-12-15T20:49:04.802Z,101540.44
2022-12-15T20:51:50.950Z,101537.88
2022-12-15T20:54:36.362Z,101540.13
2022-12-15T20:57:21.955Z,101543.50
2022-12-15T21:00:09.002Z,101539.94
2022-12-15T21:02:55.243Z,101550.25
2022-12-15T21:05:40.853Z,101551.16
2022-12-15T21:08:31.459Z,101548.50
2022-12-15T21:11:16.714Z,101544.19
2022-12-15T21:14:04.623Z,101555.28
2022-12-15T21:16:50.507Z,101560.47
2022-12-15T21:19:35.979Z,101557.06
2022-12-15T21:22:26.703Z,101563.84
2022-12-15T21:25:23.105Z,101566.19
2022-12-15T21:28:11.920Z,101565.41
2022-12-15T21:30:57.338Z,101563.75
2022-12-15T21:33:42.830Z,101558.53
2022-12-15T21:36:28.762Z,101557.66
2022-12-15T21:39:24.158Z,101555.00
2022-12-15T21:42:16.273Z,101557.28
2022-12-15T21:45:01.566Z,101561.28
2022-12-15T21:48:07.236Z,101559.44
2022-12-15T21:50:52.955Z,101560.22
2022-12-15T21:53:38.598Z,101554.13
2022-12-15T21:56:23.937Z,101560.13
2022-12-15T21:59:20.993Z,101557.69
2022-12-15T22:02:26.533Z,101554.13
2022-12-15T22:05:16.975Z,101558.94
2022-12-15T22:08:16.613Z,101553.75
2022-12-15T22:11:02.170Z,101551.78
2022-12-15T22:13:48.862Z,101544.69
2022-12-15T22:16:34.407Z,101538.63
2022-12-15T22:19:20.526Z,101543.63
2022-12-15T22:22:05.705Z,101544.50
2022-12-15T22:24:51.055Z,101534.97
2022-12-15T22:27:36.380Z,101544.22
2022-12-15T22:30:26.981Z,101551.59
2022-12-15T22:33:21.945Z,101547.25
2022-12-15T22:36:07.524Z,101553.16
2022-12-15T22:38:53.176Z,101558.66
2022-12-15T22:41:46.362Z,101562.59
2022-12-15T22:44:36.014Z,101559.75
2022-12-15T22:47:21.325Z,101566.59
2022-12-15T22:50:07.312Z,101566.69
2022-12-15T22:52:52.888Z,101570.16
2022-12-15T22:55:41.927Z,101569.16
2022-12-15T22:58:48.304Z,101570.06
2022-12-15T23:01:34.589Z,101569.25
2022-12-15T23:04:20.416Z,101564.06
2022-12-15T23:07:10.199Z,101567.41
2022-12-15T23:10:15.527Z,101573.69
2022-12-15T23:13:01.526Z,101570.56
2022-12-15T23:16:05.804Z,101580.00
2022-12-15T23:18:55.542Z,101576.44
2022-12-15T23:21:41.026Z,101585.59
2022-12-15T23:24:27.406Z,101583.72
2022-12-15T23:27:15.662Z,101588.72
2022-12-15T23:30:01.144Z,101582.75
2022-12-15T23:32:46.736Z,101581.84
2022-12-15T23:35:32.105Z,101577.22
2022-12-15T23:38:18.002Z,101581.34
2022-12-15T23:41:03.424Z,101578.88
2022-12-15T23:43:48.912Z,101583.50
2022-12-15T23:46:34.849Z,101595.59
2022-12-15T23:49:20.090Z,101579.19
2022-12-15T23:52:05.736Z,101584.19
2022-12-15T23:54:51.568Z,101587.41
2022-12-15T23:57:39.500Z,101588.22
